createdAt,value
2017-04-11T00:00:57.400Z,101982.83
2017-04-11T00:01:55.914Z,101975.97
2017-04-11T00:02:54.751Z,101977.15
2017-04-11T00:03:53.277Z,101976.12
2017-04-11T00:04:51.796Z,101975.77
2017-04-11T00:05:50.372Z,101982.14
2017-04-11T00:06:48.951Z,101980.86
2017-04-11T00:07:47.463Z,101979.22
2017-04-11T00:08:46.155Z,101978.48
2017-04-11T00:09:44.688Z,101978.77
2017-04-11T00:10:43.236Z,101979.48
2017-04-11T00:11:41.731Z,101977.01
2017-04-11T00:12:40.330Z,101984.50
2017-04-11T00:13:38.944Z,101982.86
2017-04-11T00:14:37.464Z,101981.38
2017-04-11T00:15:35.955Z,101976.19
2017-04-11T00:16:34.445Z,101974.06
2017-04-11T00:17:32.983Z,101978.02
2017-04-11T00:18:31.502Z,101972.92
2017-04-11T00:19:30.011Z,101974.72
2017-04-11T00:20:28.503Z,101977.86
2017-04-11T00:21:27.028Z,101974.66
2017-04-11T00:22:25.604Z,101972.39
2017-04-11T00:23:24.114Z,101973.91
2017-04-11T00:24:22.684Z,101975.17
2017-04-11T00:25:21.325Z,101976.88
2017-04-11T00:26:19.901Z,101978.73
2017-04-11T00:27:18.398Z,101978.57
2017-04-11T00:28:17.035Z,101970.22
2017-04-11T00:29:15.607Z,101972.19
2017-04-11T00:30:14.139Z,101967.88
2017-04-11T00:31:12.647Z,101968.99
2017-04-11T00:32:11.139Z,101962.09
2017-04-11T00:33:09.640Z,101965.84
2017-04-11T00:34:08.132Z,101961.87
2017-04-11T00:35:06.627Z,101968.08
2017-04-11T00:36:05.180Z,101969.47
2017-04-11T00:37:03.709Z,101960.23
2017-04-11T00:38:02.187Z,101967.50
2017-04-11T00:39:00.679Z,101969.92
2017-04-11T00:39:59.272Z,101965.91
2017-04-11T00:40:57.760Z,101966.16
2017-04-11T00:41:56.298Z,101968.50
2017-04-11T00:42:54.823Z,101958.59
2017-04-11T00:43:53.451Z,101966.14
2017-04-11T00:44:52.035Z,101972.42
2017-04-11T00:45:50.538Z,101966.50
2017-04-11T00:46:49.067Z,101967.86
2017-04-11T00:47:47.587Z,101966.02
2017-04-11T00:48:46.065Z,101968.86
2017-04-11T00:49:44.570Z,101965.33
2017-04-11T00:50:43.065Z,101959.09
2017-04-11T00:51:41.722Z,101969.05
2017-04-11T00:52:40.238Z,101966.48
2017-04-11T00:53:38.772Z,101966.44
2017-04-11T00:54:37.251Z,101967.19
2017-04-11T00:55:35.771Z,101970.42
2017-04-11T00:56:34.339Z,101971.03
2017-04-11T00:57:32.943Z,101962.91
2017-04-11T00:58:31.470Z,101965.80
2017-04-11T00:59:30.083Z,101958.45
2017-04-11T01:00:28.649Z,101962.45
2017-04-11T01:01:27.174Z,101966.83
2017-04-11T01:02:25.714Z,101969.36
2017-04-11T01:03:24.354Z,101970.42
2017-04-11T01:04:22.938Z,101965.11
2017-04-11T01:05:21.426Z,101965.20
2017-04-11T01:06:19.939Z,101964.93
2017-04-11T01:07:19.228Z,101962.89
2017-04-11T01:08:17.759Z,101961.95
2017-04-11T01:09:16.272Z,101963.27
2017-04-11T01:10:14.964Z,101969.88
2017-04-11T01:11:13.532Z,101967.72
2017-04-11T01:12:12.169Z,101962.21
2017-04-11T01:13:10.649Z,101967.72
2017-04-11T01:14:09.128Z,101965.70
2017-04-11T01:15:07.702Z,101970.31
2017-04-11T01:16:06.311Z,101965.84
2017-04-11T01:17:04.938Z,101967.91
2017-04-11T01:18:03.551Z,101964.07
2017-04-11T01:19:02.095Z,101965.20
2017-04-11T01:20:00.599Z,101960.89
2017-04-11T01:20:59.079Z,101964.28
2017-04-11T01:21:57.637Z,101961.18
2017-04-11T01:22:56.139Z,101960.62
2017-04-11T01:23:54.987Z,101964.75
2017-04-11T01:24:53.592Z,101966.14
2017-04-11T01:25:52.144Z,101969.70
2017-04-11T01:26:50.644Z,101962.84
2017-04-11T01:27:49.165Z,101964.31
2017-04-11T01:28:47.756Z,101971.28
2017-04-11T01:29:46.284Z,101964.94
2017-04-11T01:30:44.879Z,101969.47
2017-04-11T01:31:43.374Z,101969.50
2017-04-11T01:32:41.891Z,101969.64
2017-04-11T01:33:40.406Z,101972.75
2017-04-11T01:34:38.923Z,101968.59
2017-04-11T01:35:37.404Z,101967.41
2017-04-11T01:36:35.939Z,101970.96
2017-04-11T01:37:34.519Z,101970.03
2017-04-11T01:38:33.134Z,101970.58
2017-04-11T01:39:31.627Z,101969.81
2017-04-11T01:40:30.234Z,101973.59
2017-04-11T01:41:28.775Z,101981.93
2017-04-11T01:42:27.268Z,101977.36
2017-04-11T01:43:25.826Z,101978.36
2017-04-11T01:44:24.306Z,101979.34
2017-04-11T01:45:22.843Z,101981.53
2017-04-11T01:46:21.387Z,101978.45
2017-04-11T01:47:19.942Z,101976.44
2017-04-11T01:48:18.535Z,101981.34
2017-04-11T01:49:17.081Z,101982.76
2017-04-11T01:50:15.595Z,101980.83
2017-04-11T01:51:14.099Z,101984.01
2017-04-11T01:52:12.599Z,101982.76
2017-04-11T01:53:11.075Z,101989.00
2017-04-11T01:54:09.587Z,101983.69
2017-04-11T01:55:08.167Z,101988.44
2017-04-11T01:56:06.783Z,101985.97
2017-04-11T01:57:05.379Z,101984.68
2017-04-11T01:58:03.850Z,101980.53
2017-04-11T01:59:02.401Z,101986.02
2017-04-11T02:00:00.919Z,101984.60
2017-04-11T02:00:59.455Z,101986.41
2017-04-11T02:01:57.943Z,101980.61
2017-04-11T02:02:56.436Z,101982.04
2017-04-11T02:03:54.936Z,101985.30
2017-04-11T02:04:53.530Z,101982.00
2017-04-11T02:05:52.003Z,101982.59
2017-04-11T02:06:50.483Z,101982.73
2017-04-11T02:07:49.075Z,101989.58
2017-04-11T02:08:47.752Z,101987.62
2017-04-11T02:09:46.529Z,101982.36
2017-04-11T02:10:45.015Z,101983.77
2017-04-11T02:11:43.611Z,101984.68
2017-04-11T02:12:42.106Z,101985.25
2017-04-11T02:13:40.623Z,101988.34
2017-04-11T02:14:39.130Z,101981.19
2017-04-11T02:15:37.742Z,101989.94
2017-04-11T02:16:36.239Z,101987.80
2017-04-11T02:17:34.763Z,101992.97
2017-04-11T02:18:33.286Z,101987.48
2017-04-11T02:19:32.159Z,101986.67
2017-04-11T02:20:30.680Z,101990.24
2017-04-11T02:21:29.182Z,101990.05
2017-04-11T02:22:27.754Z,101993.56
2017-04-11T02:23:26.319Z,101986.56
2017-04-11T02:24:24.830Z,101988.86
2017-04-11T02:25:23.328Z,101989.20
2017-04-11T02:26:21.946Z,101994.16
2017-04-11T02:27:20.564Z,101986.39
2017-04-11T02:28:19.080Z,101986.59
2017-04-11T02:29:17.627Z,101990.05
2017-04-11T02:30:16.139Z,101987.06
2017-04-11T02:31:14.607Z,101993.47
2017-04-11T02:32:13.221Z,101992.98
2017-04-11T02:33:11.748Z,101988.60
2017-04-11T02:34:10.229Z,101991.27
2017-04-11T02:35:08.713Z,101990.66
2017-04-11T02:36:07.330Z,101995.44
2017-04-11T02:37:05.877Z,101996.72
2017-04-11T02:38:04.396Z,101994.75
2017-04-11T02:39:02.913Z,101996.59
2017-04-11T02:40:01.425Z,101997.25
2017-04-11T02:40:59.976Z,101999.80
2017-04-11T02:41:58.479Z,101994.98
2017-04-11T02:42:56.987Z,101997.30
2017-04-11T02:43:55.537Z,102002.95
2017-04-11T02:44:54.335Z,101994.05
2017-04-11T02:45:52.880Z,101998.53
2017-04-11T02:46:51.366Z,101996.52
2017-04-11T02:47:49.905Z,102002.59
2017-04-11T02:48:48.436Z,102002.15
2017-04-11T02:49:46.907Z,101999.91
2017-04-11T02:50:45.382Z,102005.14
2017-04-11T02:51:43.959Z,102002.16
2017-04-11T02:52:42.447Z,102004.11
2017-04-11T02:53:41.003Z,102008.53
2017-04-11T02:54:39.608Z,102007.58
2017-04-11T02:55:38.206Z,102004.16
2017-04-11T02:56:36.700Z,102006.20
2017-04-11T02:57:35.195Z,102001.82
2017-04-11T02:58:33.677Z,102006.87
2017-04-11T02:59:32.259Z,102009.66
2017-04-11T03:00:30.759Z,102003.31
2017-04-11T03:01:29.321Z,102009.34
2017-04-11T03:02:27.818Z,102004.34
2017-04-11T03:03:26.394Z,102003.44
2017-04-11T03:04:24.871Z,102006.89
2017-04-11T03:05:23.387Z,102009.25
2017-04-11T03:06:21.923Z,102006.98
2017-04-11T03:07:20.543Z,102012.52
2017-04-11T03:08:19.023Z,102005.88
2017-04-11T03:09:17.538Z,102006.92
2017-04-11T03:10:16.043Z,102005.36
2017-04-11T03:11:14.549Z,102007.38
2017-04-11T03:12:13.023Z,102006.06
2017-04-11T03:13:11.507Z,102005.36
2017-04-11T03:14:10.051Z,102013.20
2017-04-11T03:15:08.559Z,102011.38
2017-04-11T03:16:07.047Z,102014.11
2017-04-11T03:17:05.795Z,102016.31
2017-04-11T03:18:04.278Z,102015.61
2017-04-11T03:19:02.883Z,102012.20
2017-04-11T03:20:01.422Z,102011.52
2017-04-11T03:20:59.945Z,102010.59
2017-04-11T03:21:58.507Z,102012.79
2017-04-11T03:22:57.008Z,102016.84
2017-04-11T03:23:55.544Z,102009.88
2017-04-11T03:24:54.125Z,102014.24
2017-04-11T03:25:52.623Z,102017.33
2017-04-11T03:26:51.130Z,102012.95
2017-04-11T03:27:49.643Z,102008.84
2017-04-11T03:28:48.146Z,102013.33
2017-04-11T03:29:46.636Z,102015.09
2017-04-11T03:30:45.143Z,102014.74
2017-04-11T03:31:43.645Z,102007.33
2017-04-11T03:32:42.144Z,102012.52
2017-04-11T03:33:40.671Z,102015.09
2017-04-11T03:34:39.243Z,102016.08
2017-04-11T03:35:37.876Z,102013.34
2017-04-11T03:36:36.424Z,102017.77
2017-04-11T03:37:34.956Z,102020.89
2017-04-11T03:38:33.449Z,102015.27
2017-04-11T03:39:31.977Z,102019.02
2017-04-11T03:40:30.512Z,102012.03
2017-04-11T03:41:29.091Z,102014.17
2017-04-11T03:42:27.555Z,102018.05
2017-04-11T03:43:26.043Z,102014.73
2017-04-11T03:44:24.584Z,102018.31
2017-04-11T03:45:23.135Z,102018.84
2017-04-11T03:46:21.651Z,102019.83
2017-04-11T03:47:20.123Z,102025.81
2017-04-11T03:48:18.695Z,102023.61
2017-04-11T03:49:17.211Z,102026.25
2017-04-11T03:50:15.715Z,102029.31
2017-04-11T03:51:14.218Z,102027.81
2017-04-11T03:52:12.727Z,102037.84
2017-04-11T03:53:11.284Z,102033.03
2017-04-11T03:54:09.796Z,102029.86
2017-04-11T03:55:08.275Z,102037.61
2017-04-11T03:56:06.778Z,102033.44
2017-04-11T03:57:05.264Z,102037.05
2017-04-11T03:58:03.753Z,102040.83
2017-04-11T03:59:02.291Z,102041.39
2017-04-11T04:00:00.953Z,102042.76
2017-04-11T04:01:00.128Z,102045.91
2017-04-11T04:01:58.710Z,102037.89
2017-04-11T04:02:57.226Z,102043.03
2017-04-11T04:03:55.731Z,102047.37
2017-04-11T04:04:54.288Z,102047.42
2017-04-11T04:05:53.272Z,102051.19
2017-04-11T04:06:51.786Z,102049.72
2017-04-11T04:07:50.258Z,102052.58
2017-04-11T04:08:48.884Z,102052.05
2017-04-11T04:09:47.457Z,102050.77
2017-04-11T04:10:46.032Z,102053.05
2017-04-11T04:11:44.559Z,102048.64
2017-04-11T04:12:43.047Z,102059.42
2017-04-11T04:13:41.534Z,102052.31
2017-04-11T04:14:40.156Z,102054.98
2017-04-11T04:15:38.737Z,102053.86
2017-04-11T04:16:37.300Z,102059.73
2017-04-11T04:17:35.911Z,102060.72
2017-04-11T04:18:34.434Z,102055.74
2017-04-11T04:19:33.109Z,102057.91
2017-04-11T04:20:31.603Z,102061.48
2017-04-11T04:21:30.112Z,102058.77
2017-04-11T04:22:28.595Z,102058.84
2017-04-11T04:23:27.080Z,102062.27
2017-04-11T04:24:25.595Z,102061.04
2017-04-11T04:25:24.108Z,102064.19
2017-04-11T04:26:22.651Z,102068.22
2017-04-11T04:27:21.191Z,102068.30
2017-04-11T04:28:19.735Z,102063.61
2017-04-11T04:29:18.373Z,102065.25
2017-04-11T04:30:16.876Z,102062.53
2017-04-11T04:31:15.715Z,102061.64
2017-04-11T04:32:14.208Z,102061.51
2017-04-11T04:33:12.735Z,102066.84
2017-04-11T04:34:11.196Z,102065.05
2017-04-11T04:35:09.735Z,102064.98
2017-04-11T04:36:08.225Z,102068.50
2017-04-11T04:37:06.747Z,102067.95
2017-04-11T04:38:05.283Z,102070.87
2017-04-11T04:39:03.891Z,102072.09
2017-04-11T04:40:02.404Z,102070.98
2017-04-11T04:41:00.998Z,102074.88
2017-04-11T04:41:59.603Z,102069.14
2017-04-11T04:42:58.219Z,102071.08
2017-04-11T04:43:56.861Z,102076.19
2017-04-11T04:44:55.373Z,102076.21
2017-04-11T04:45:53.861Z,102072.09
2017-04-11T04:46:52.354Z,102070.43
2017-04-11T04:47:50.859Z,102075.36
2017-04-11T04:48:49.359Z,102074.85
2017-04-11T04:49:47.856Z,102068.22
2017-04-11T04:50:46.355Z,102074.98
2017-04-11T04:51:44.860Z,102072.52
2017-04-11T04:52:43.378Z,102066.69
2017-04-11T04:53:41.872Z,102070.39
2017-04-11T04:54:40.366Z,102073.17
2017-04-11T04:55:38.939Z,102073.04
2017-04-11T04:56:37.475Z,102076.94
2017-04-11T04:57:35.964Z,102078.58
2017-04-11T04:58:34.468Z,102082.86
2017-04-11T04:59:32.989Z,102083.62
2017-04-11T05:00:31.668Z,102088.11
2017-04-11T05:01:30.168Z,102090.66
2017-04-11T05:02:28.668Z,102096.84
2017-04-11T05:03:28.217Z,102093.05
2017-04-11T05:04:26.764Z,102103.08
2017-04-11T05:05:25.408Z,102099.19
2017-04-11T05:06:23.935Z,102106.25
2017-04-11T05:07:22.479Z,102109.44
2017-04-11T05:08:21.211Z,102107.40
2017-04-11T05:09:19.958Z,102109.02
2017-04-11T05:10:18.591Z,102108.39
2017-04-11T05:11:17.110Z,102098.05
2017-04-11T05:12:15.663Z,102107.16
2017-04-11T05:13:14.161Z,102106.04
2017-04-11T05:14:12.687Z,102107.86
2017-04-11T05:15:11.187Z,102113.84
2017-04-11T05:16:09.697Z,102111.37
2017-04-11T05:17:08.234Z,102115.43
2017-04-11T05:18:06.833Z,102112.59
2017-04-11T05:19:05.474Z,102115.76
2017-04-11T05:20:04.114Z,102114.44
2017-04-11T05:21:02.675Z,102123.08
2017-04-11T05:22:01.246Z,102117.41
2017-04-11T05:22:59.812Z,102116.30
2017-04-11T05:23:58.337Z,102119.50
2017-04-11T05:24:56.851Z,102124.94
2017-04-11T05:25:55.383Z,102129.32
2017-04-11T05:26:53.899Z,102135.28
2017-04-11T05:27:52.392Z,102129.53
2017-04-11T05:28:51.020Z,102133.94
2017-04-11T05:29:49.615Z,102126.93
2017-04-11T05:30:48.259Z,102141.39
2017-04-11T05:31:46.806Z,102137.63
2017-04-11T05:32:45.529Z,102143.16
2017-04-11T05:33:44.300Z,102137.73
2017-04-11T05:34:42.822Z,102142.19
2017-04-11T05:35:41.439Z,102143.86
2017-04-11T05:36:40.067Z,102141.06
2017-04-11T05:37:41.120Z,102144.77
2017-04-11T05:38:40.750Z,102147.97
2017-04-11T05:39:42.255Z,102152.17
2017-04-11T05:40:42.046Z,102154.42
2017-04-11T05:41:41.427Z,102160.88
2017-04-11T05:42:40.753Z,102155.37
2017-04-11T05:43:39.855Z,102154.05
2017-04-11T05:44:38.963Z,102155.37
2017-04-11T05:45:37.599Z,102161.31
2017-04-11T05:46:36.840Z,102156.98
2017-04-11T05:47:35.492Z,102158.94
2017-04-11T05:48:34.281Z,102161.62
2017-04-11T05:49:34.460Z,102166.86
2017-04-11T05:50:33.770Z,102157.95
2017-04-11T05:51:32.783Z,102164.83
2017-04-11T05:52:31.292Z,102166.76
2017-04-11T05:53:29.838Z,102171.29
2017-04-11T05:54:28.380Z,102169.22
2017-04-11T05:55:27.019Z,102171.81
2017-04-11T05:56:28.992Z,102174.97
2017-04-11T05:57:27.507Z,102170.06
2017-04-11T05:58:26.739Z,102172.82
2017-04-11T05:59:26.373Z,102177.04
2017-04-11T06:00:24.907Z,102171.39
2017-04-11T06:01:25.903Z,102176.72
2017-04-11T06:02:24.407Z,102182.45
2017-04-11T06:03:23.402Z,102181.52
2017-04-11T06:04:21.891Z,102179.88
2017-04-11T06:05:20.381Z,102180.52
2017-04-11T06:06:18.932Z,102183.88
2017-04-11T06:07:17.575Z,102182.37
2017-04-11T06:08:16.356Z,102185.14
2017-04-11T06:09:14.891Z,102185.05
2017-04-11T06:10:13.522Z,102186.27
2017-04-11T06:11:12.075Z,102182.97
2017-04-11T06:12:10.606Z,102188.83
2017-04-11T06:13:09.156Z,102189.33
2017-04-11T06:14:07.917Z,102193.25
2017-04-11T06:15:06.457Z,102194.55
2017-04-11T06:16:05.036Z,102191.39
2017-04-11T06:17:03.518Z,102195.89
2017-04-11T06:18:02.016Z,102201.04
2017-04-11T06:19:00.540Z,102198.72
2017-04-11T06:19:59.051Z,102198.83
2017-04-11T06:20:57.637Z,102200.58
2017-04-11T06:21:56.227Z,102200.52
2017-04-11T06:22:54.827Z,102202.34
2017-04-11T06:23:53.352Z,102201.74
2017-04-11T06:24:51.891Z,102200.52
2017-04-11T06:25:50.380Z,102203.67
2017-04-11T06:26:48.977Z,102205.33
2017-04-11T06:27:47.491Z,102206.23
2017-04-11T06:28:46.166Z,102211.78
2017-04-11T06:29:44.691Z,102209.53
2017-04-11T06:30:43.218Z,102207.67
2017-04-11T06:31:41.763Z,102211.28
2017-04-11T06:32:40.334Z,102207.50
2017-04-11T06:33:38.867Z,102211.35
2017-04-11T06:34:37.395Z,102210.13
2017-04-11T06:35:35.924Z,102206.06
2017-04-11T06:36:34.555Z,102205.11
2017-04-11T06:37:33.077Z,102203.77
2017-04-11T06:38:31.679Z,102210.33
2017-04-11T06:39:30.186Z,102210.61
2017-04-11T06:40:28.724Z,102207.12
2017-04-11T06:41:27.234Z,102208.75
2017-04-11T06:42:25.783Z,102215.12
2017-04-11T06:43:24.370Z,102220.29
2017-04-11T06:44:22.863Z,102219.02
2017-04-11T06:45:21.353Z,102218.84
2017-04-11T06:46:19.877Z,102220.62
2017-04-11T06:47:18.934Z,102222.42
2017-04-11T06:48:17.460Z,102226.61
2017-04-11T06:49:15.985Z,102224.22
2017-04-11T06:50:14.498Z,102225.50
2017-04-11T06:51:13.156Z,102222.91
2017-04-11T06:52:11.707Z,102226.08
2017-04-11T06:53:10.217Z,102221.78
2017-04-11T06:54:08.700Z,102220.21
2017-04-11T06:55:07.256Z,102217.09
2017-04-11T06:56:05.892Z,102221.05
2017-04-11T06:57:04.404Z,102218.52
2017-04-11T06:58:02.986Z,102227.39
2017-04-11T06:59:01.532Z,102220.30
2017-04-11T07:00:00.017Z,102219.72
2017-04-11T07:00:58.567Z,102220.17
2017-04-11T07:01:57.085Z,102219.48
2017-04-11T07:02:56.794Z,102222.46
2017-04-11T07:03:55.441Z,102222.14
2017-04-11T07:04:54.547Z,102216.89
2017-04-11T07:05:53.068Z,102222.66
2017-04-11T07:06:51.601Z,102217.42
2017-04-11T07:07:50.272Z,102218.62
2017-04-11T07:08:48.788Z,102221.44
2017-04-11T07:09:47.280Z,102224.94
2017-04-11T07:10:45.863Z,102217.36
2017-04-11T07:11:44.547Z,102217.17
2017-04-11T07:12:43.031Z,102216.34
2017-04-11T07:13:41.601Z,102218.30
2017-04-11T07:14:40.210Z,102220.16
2017-04-11T07:15:38.871Z,102217.00
2017-04-11T07:16:37.528Z,102223.03
2017-04-11T07:17:36.105Z,102220.47
2017-04-11T07:18:34.687Z,102218.25
2017-04-11T07:19:33.359Z,102212.55
2017-04-11T07:20:31.974Z,102214.00
2017-04-11T07:21:30.598Z,102211.73
2017-04-11T07:22:29.142Z,102214.19
2017-04-11T07:23:27.811Z,102210.80
2017-04-11T07:24:26.413Z,102206.66
2017-04-11T07:25:25.132Z,102210.23
2017-04-11T07:26:23.656Z,102208.56
2017-04-11T07:27:22.167Z,102207.34
2017-04-11T07:28:20.642Z,102205.16
2017-04-11T07:29:19.119Z,102198.66
2017-04-11T07:30:17.648Z,102208.03
2017-04-11T07:31:16.224Z,102205.36
2017-04-11T07:32:14.740Z,102202.16
2017-04-11T07:33:13.242Z,102200.41
2017-04-11T07:34:11.740Z,102202.28
2017-04-11T07:35:10.232Z,102204.52
2017-04-11T07:36:08.752Z,102204.84
2017-04-11T07:37:07.291Z,102208.45
2017-04-11T07:38:05.775Z,102204.53
2017-04-11T07:39:04.423Z,102204.34
2017-04-11T07:40:03.039Z,102204.20
2017-04-11T07:41:01.678Z,102206.51
2017-04-11T07:42:01.356Z,102207.50
2017-04-11T07:42:59.859Z,102210.91
2017-04-11T07:43:58.323Z,102202.41
2017-04-11T07:44:56.811Z,102206.75
2017-04-11T07:45:55.297Z,102206.80
2017-04-11T07:46:53.815Z,102210.83
2017-04-11T07:47:52.320Z,102206.08
2017-04-11T07:48:50.822Z,102212.16
2017-04-11T07:49:49.439Z,102209.56
2017-04-11T07:50:48.062Z,102209.49
2017-04-11T07:51:46.562Z,102208.43
2017-04-11T07:52:45.162Z,102214.25
2017-04-11T07:53:43.796Z,102209.72
2017-04-11T07:54:42.368Z,102208.36
2017-04-11T07:55:40.898Z,102207.66
2017-04-11T07:56:39.417Z,102206.10
2017-04-11T07:57:37.950Z,102210.11
2017-04-11T07:58:36.471Z,102206.61
2017-04-11T07:59:34.954Z,102212.16
2017-04-11T08:00:33.636Z,102214.24
2017-04-11T08:01:32.207Z,102207.26
2017-04-11T08:02:30.862Z,102211.05
2017-04-11T08:03:29.458Z,102213.41
2017-04-11T08:04:28.027Z,102214.55
2017-04-11T08:05:26.775Z,102216.36
2017-04-11T08:06:25.310Z,102215.37
2017-04-11T08:07:23.891Z,102214.58
2017-04-11T08:08:22.415Z,102216.13
2017-04-11T08:09:20.971Z,102218.42
2017-04-11T08:10:19.436Z,102207.65
2017-04-11T08:11:17.971Z,102215.02
2017-04-11T08:12:16.495Z,102211.38
2017-04-11T08:13:14.996Z,102213.37
2017-04-11T08:14:13.539Z,102215.92
2017-04-11T08:15:12.090Z,102216.17
2017-04-11T08:16:10.628Z,102220.95
2017-04-11T08:17:09.139Z,102218.12
2017-04-11T08:18:07.656Z,102212.13
2017-04-11T08:19:06.169Z,102217.70
2017-04-11T08:20:04.744Z,102220.76
2017-04-11T08:21:03.223Z,102223.52
2017-04-11T08:22:01.818Z,102220.52
2017-04-11T08:23:00.463Z,102220.83
2017-04-11T08:23:59.143Z,102229.95
2017-04-11T08:24:57.722Z,102231.09
2017-04-11T08:25:56.315Z,102231.48
2017-04-11T08:26:54.814Z,102231.80
2017-04-11T08:27:53.309Z,102229.01
2017-04-11T08:28:51.842Z,102234.42
2017-04-11T08:29:50.364Z,102236.49
2017-04-11T08:30:48.964Z,102235.80
2017-04-11T08:31:47.538Z,102231.20
2017-04-11T08:32:46.105Z,102235.08
2017-04-11T08:33:44.671Z,102238.73
2017-04-11T08:34:43.247Z,102236.16
2017-04-11T08:35:41.836Z,102240.08
2017-04-11T08:36:40.337Z,102234.58
2017-04-11T08:37:38.862Z,102230.98
2017-04-11T08:38:37.393Z,102227.59
2017-04-11T08:39:35.912Z,102226.31
2017-04-11T08:40:34.451Z,102227.98
2017-04-11T08:41:32.996Z,102229.56
2017-04-11T08:42:31.515Z,102235.10
2017-04-11T08:43:30.037Z,102235.97
2017-04-11T08:44:28.643Z,102241.27
2017-04-11T08:45:27.171Z,102246.34
2017-04-11T08:46:25.735Z,102240.40
2017-04-11T08:47:24.263Z,102244.48
2017-04-11T08:48:22.867Z,102241.82
2017-04-11T08:49:21.423Z,102242.25
2017-04-11T08:50:20.232Z,102239.41
2017-04-11T08:51:18.744Z,102239.95
2017-04-11T08:52:17.316Z,102245.61
2017-04-11T08:53:15.890Z,102246.78
2017-04-11T08:54:14.447Z,102251.56
2017-04-11T08:55:12.987Z,102251.36
2017-04-11T08:56:11.579Z,102243.95
2017-04-11T08:57:10.098Z,102251.08
2017-04-11T08:58:08.717Z,102251.57
2017-04-11T08:59:07.296Z,102249.83
2017-04-11T09:00:05.961Z,102250.13
2017-04-11T09:01:04.544Z,102252.56
2017-04-11T09:02:03.159Z,102260.28
2017-04-11T09:03:01.728Z,102250.84
2017-04-11T09:04:00.319Z,102252.36
2017-04-11T09:04:58.822Z,102256.42
2017-04-11T09:05:57.439Z,102250.06
2017-04-11T09:06:56.065Z,102249.48
2017-04-11T09:07:54.709Z,102243.35
2017-04-11T09:08:53.273Z,102245.92
2017-04-11T09:09:51.815Z,102247.50
2017-04-11T09:10:50.341Z,102252.63
2017-04-11T09:11:48.955Z,102249.12
2017-04-11T09:12:47.452Z,102251.09
2017-04-11T09:13:46.037Z,102248.87
2017-04-11T09:14:44.616Z,102252.42
2017-04-11T09:15:43.127Z,102255.18
2017-04-11T09:16:41.659Z,102253.81
2017-04-11T09:17:40.229Z,102249.79
2017-04-11T09:18:38.832Z,102255.22
2017-04-11T09:19:37.406Z,102256.33
2017-04-11T09:20:35.956Z,102257.05
2017-04-11T09:21:34.511Z,102256.08
2017-04-11T09:22:33.052Z,102263.74
2017-04-11T09:23:31.791Z,102259.34
2017-04-11T09:24:30.319Z,102255.91
2017-04-11T09:25:28.839Z,102258.11
2017-04-11T09:26:27.307Z,102260.51
2017-04-11T09:27:25.952Z,102254.83
2017-04-11T09:28:24.457Z,102256.48
2017-04-11T09:29:23.023Z,102251.93
2017-04-11T09:30:21.629Z,102260.52
2017-04-11T09:31:20.311Z,102256.77
2017-04-11T09:32:18.883Z,102255.77
2017-04-11T09:33:17.700Z,102255.60
2017-04-11T09:34:16.276Z,102257.22
2017-04-11T09:35:14.869Z,102260.19
2017-04-11T09:36:13.407Z,102255.59
2017-04-11T09:37:12.067Z,102257.41
2017-04-11T09:38:10.623Z,102254.87
2017-04-11T09:39:09.151Z,102255.06
2017-04-11T09:40:07.699Z,102264.34
2017-04-11T09:41:06.217Z,102257.92
2017-04-11T09:42:04.827Z,102260.71
2017-04-11T09:43:03.366Z,102254.47
2017-04-11T09:44:01.963Z,102256.05
2017-04-11T09:45:00.482Z,102255.02
2017-04-11T09:45:59.100Z,102254.23
2017-04-11T09:46:57.666Z,102246.31
2017-04-11T09:47:56.262Z,102252.87
2017-04-11T09:48:54.885Z,102250.54
2017-04-11T09:49:53.438Z,102263.02
2017-04-11T09:50:52.114Z,102253.94
2017-04-11T09:51:50.639Z,102260.02
2017-04-11T09:52:49.161Z,102257.80
2017-04-11T09:53:47.695Z,102260.30
2017-04-11T09:54:46.269Z,102256.99
2017-04-11T09:55:44.925Z,102254.16
2017-04-11T09:56:43.539Z,102262.06
2017-04-11T09:57:43.103Z,102253.48
2017-04-11T09:58:41.610Z,102257.07
2017-04-11T09:59:40.148Z,102253.66
2017-04-11T10:00:38.903Z,102260.67
2017-04-11T10:01:37.507Z,102259.75
2017-04-11T10:02:36.114Z,102258.72
2017-04-11T10:03:34.720Z,102262.70
2017-04-11T10:04:33.269Z,102261.52
2017-04-11T10:05:31.785Z,102258.76
2017-04-11T10:06:30.367Z,102256.78
2017-04-11T10:07:28.891Z,102258.62
2017-04-11T10:08:27.414Z,102259.72
2017-04-11T10:09:26.068Z,102258.31
2017-04-11T10:10:24.631Z,102261.52
2017-04-11T10:11:23.178Z,102256.30
2017-04-11T10:12:21.752Z,102255.45
2017-04-11T10:13:20.287Z,102260.73
2017-04-11T10:14:18.847Z,102261.48
2017-04-11T10:15:17.356Z,102263.53
2017-04-11T10:16:16.071Z,102262.96
2017-04-11T10:17:14.580Z,102263.46
2017-04-11T10:18:13.135Z,102261.83
2017-04-11T10:19:11.676Z,102267.42
2017-04-11T10:20:10.200Z,102268.88
2017-04-11T10:21:08.752Z,102268.67
2017-04-11T10:22:07.264Z,102267.25
2017-04-11T10:23:05.759Z,102268.15
2017-04-11T10:24:04.275Z,102262.48
2017-04-11T10:25:02.777Z,102267.35
2017-04-11T10:26:01.383Z,102265.60
2017-04-11T10:26:59.875Z,102260.22
2017-04-11T10:27:58.421Z,102263.29
2017-04-11T10:28:56.957Z,102262.19
2017-04-11T10:29:55.548Z,102271.14
2017-04-11T10:30:54.160Z,102270.16
2017-04-11T10:31:52.771Z,102269.79
2017-04-11T10:32:51.407Z,102263.08
2017-04-11T10:33:50.090Z,102266.98
2017-04-11T10:34:48.574Z,102265.45
2017-04-11T10:35:47.098Z,102263.90
2017-04-11T10:36:45.616Z,102265.61
2017-04-11T10:37:44.220Z,102256.97
2017-04-11T10:38:42.785Z,102258.57
2017-04-11T10:39:41.350Z,102261.03
2017-04-11T10:40:39.873Z,102269.09
2017-04-11T10:41:38.420Z,102260.20
2017-04-11T10:42:36.987Z,102265.86
2017-04-11T10:43:35.539Z,102264.63
2017-04-11T10:44:34.131Z,102263.33
2017-04-11T10:45:32.664Z,102256.69
2017-04-11T10:46:31.195Z,102262.70
2017-04-11T10:47:29.708Z,102264.45
2017-04-11T10:48:28.276Z,102255.53
2017-04-11T10:49:26.834Z,102265.57
2017-04-11T10:50:25.398Z,102256.80
2017-04-11T10:51:23.919Z,102256.59
2017-04-11T10:52:22.470Z,102253.97
2017-04-11T10:53:21.086Z,102254.57
2017-04-11T10:54:19.648Z,102258.86
2017-04-11T10:55:18.146Z,102254.06
2017-04-11T10:56:16.640Z,102248.39
2017-04-11T10:57:15.167Z,102252.92
2017-04-11T10:58:13.683Z,102254.27
2017-04-11T10:59:12.263Z,102250.39
2017-04-11T11:00:10.740Z,102246.41
2017-04-11T11:01:09.287Z,102245.95
2017-04-11T11:02:07.865Z,102250.97
2017-04-11T11:03:06.410Z,102237.33
2017-04-11T11:04:04.937Z,102236.73
2017-04-11T11:05:03.507Z,102246.55
2017-04-11T11:06:02.092Z,102238.02
2017-04-11T11:07:00.590Z,102234.53
2017-04-11T11:07:59.114Z,102243.95
2017-04-11T11:08:57.650Z,102244.09